sensor_id;sensor_type;location;lat;lon;timestamp;P1;durP1;ratioP1;P2;durP2;ratioP2
10469;SDS011;5282;47.052;15.458;2022-07-29T00:01:13;5.40;;;5.07;;
10469;SDS011;5282;47.052;15.458;2022-07-29T00:03:41;5.30;;;5.00;;
10469;SDS011;5282;47.052;15.458;2022-07-29T00:06:08;5.20;;;5.00;;
10469;SDS011;5282;47.052;15.458;2022-07-29T00:08:35;5.23;;;5.03;;
10469;SDS011;5282;47.052;15.458;2022-07-29T00:11:02;5.40;;;5.13;;
10469;SDS011;5282;47.052;15.458;2022-07-29T00:13:30;5.03;;;4.70;;
10469;SDS011;5282;47.052;15.458;2022-07-29T00:15:58;5.43;;;5.23;;
10469;SDS011;5282;47.052;15.458;2022-07-29T00:18:25;5.90;;;5.50;;
10469;SDS011;5282;47.052;15.458;2022-07-29T00:20:52;5.97;;;5.67;;
10469;SDS011;5282;47.052;15.458;2022-07-29T00:23:20;5.20;;;5.10;;
10469;SDS011;5282;47.052;15.458;2022-07-29T00:25:47;5.90;;;5.57;;
10469;SDS011;5282;47.052;15.458;2022-07-29T00:28:13;5.97;;;5.67;;
10469;SDS011;5282;47.052;15.458;2022-07-29T00:30:40;5.80;;;5.60;;
10469;SDS011;5282;47.052;15.458;2022-07-29T00:33:10;6.10;;;5.80;;
10469;SDS011;5282;47.052;15.458;2022-07-29T00:35:36;5.20;;;5.00;;
10469;SDS011;5282;47.052;15.458;2022-07-29T00:38:12;5.63;;;5.33;;
10469;SDS011;5282;47.052;15.458;2022-07-29T00:40:39;5.47;;;5.27;;
10469;SDS011;5282;47.052;15.458;2022-07-29T00:43:06;5.73;;;5.43;;
10469;SDS011;5282;47.052;15.458;2022-07-29T00:45:34;5.53;;;5.33;;
10469;SDS011;5282;47.052;15.458;2022-07-29T00:48:01;5.90;;;5.60;;
10469;SDS011;5282;47.052;15.458;2022-07-29T00:50:31;5.50;;;5.30;;
10469;SDS011;5282;47.052;15.458;2022-07-29T00:53:00;5.33;;;5.13;;
10469;SDS011;5282;47.052;15.458;2022-07-29T00:55:29;5.47;;;5.10;;
10469;SDS011;5282;47.052;15.458;2022-07-29T00:57:57;5.90;;;5.60;;
10469;SDS011;5282;47.052;15.458;2022-07-29T01:00:25;5.50;;;5.30;;
10469;SDS011;5282;47.052;15.458;2022-07-29T01:02:53;6.00;;;5.60;;
10469;SDS011;5282;47.052;15.458;2022-07-29T01:05:21;6.00;;;5.60;;
10469;SDS011;5282;47.052;15.458;2022-07-29T01:07:51;5.83;;;5.63;;
10469;SDS011;5282;47.052;15.458;2022-07-29T01:10:20;5.40;;;5.20;;
10469;SDS011;5282;47.052;15.458;2022-07-29T01:12:50;6.47;;;6.13;;
10469;SDS011;5282;47.052;15.458;2022-07-29T01:15:19;5.83;;;5.53;;
10469;SDS011;5282;47.052;15.458;2022-07-29T01:17:49;6.13;;;5.93;;
10469;SDS011;5282;47.052;15.458;2022-07-29T01:20:24;5.77;;;5.57;;
10469;SDS011;5282;47.052;15.458;2022-07-29T01:23:05;5.83;;;5.60;;
10469;SDS011;5282;47.052;15.458;2022-07-29T01:25:45;5.90;;;5.60;;
10469;SDS011;5282;47.052;15.458;2022-07-29T01:31:16;5.93;;;5.53;;
10469;SDS011;5282;47.052;15.458;2022-07-29T01:33:53;5.93;;;5.53;;
10469;SDS011;5282;47.052;15.458;2022-07-29T01:36:30;6.03;;;5.67;;
10469;SDS011;5282;47.052;15.458;2022-07-29T01:39:01;5.67;;;5.47;;
10469;SDS011;5282;47.052;15.458;2022-07-29T01:41:32;6.53;;;6.23;;
10469;SDS011;5282;47.052;15.458;2022-07-29T01:44:07;6.50;;;6.30;;
10469;SDS011;5282;47.052;15.458;2022-07-29T01:46:39;6.20;;;5.90;;
10469;SDS011;5282;47.052;15.458;2022-07-29T01:49:13;6.03;;;5.73;;
10469;SDS011;5282;47.052;15.458;2022-07-29T01:51:46;5.93;;;5.73;;
10469;SDS011;5282;47.052;15.458;2022-07-29T01:54:18;6.03;;;5.83;;
10469;SDS011;5282;47.052;15.458;2022-07-29T01:56:49;5.87;;;5.63;;
10469;SDS011;5282;47.052;15.458;2022-07-29T01:59:19;5.80;;;5.60;;
10469;SDS011;5282;47.052;15.458;2022-07-29T02:01:48;6.10;;;5.90;;
10469;SDS011;5282;47.052;15.458;2022-07-29T02:04:19;6.27;;;5.87;;
10469;SDS011;5282;47.052;15.458;2022-07-29T02:06:47;5.97;;;5.77;;
10469;SDS011;5282;47.052;15.458;2022-07-29T02:09:17;6.00;;;5.70;;
10469;SDS011;5282;47.052;15.458;2022-07-29T02:11:48;6.30;;;6.00;;
10469;SDS011;5282;47.052;15.458;2022-07-29T02:14:20;6.33;;;5.93;;
10469;SDS011;5282;47.052;15.458;2022-07-29T02:16:50;6.13;;;5.83;;
10469;SDS011;5282;47.052;15.458;2022-07-29T02:19:20;5.47;;;5.27;;
10469;SDS011;5282;47.052;15.458;2022-07-29T02:21:51;5.47;;;5.23;;
10469;SDS011;5282;47.052;15.458;2022-07-29T02:24:22;6.20;;;5.90;;
10469;SDS011;5282;47.052;15.458;2022-07-29T02:26:51;6.23;;;5.77;;
10469;SDS011;5282;47.052;15.458;2022-07-29T02:29:21;6.00;;;5.80;;
10469;SDS011;5282;47.052;15.458;2022-07-29T02:31:50;6.40;;;6.03;;
10469;SDS011;5282;47.052;15.458;2022-07-29T02:34:18;6.10;;;5.90;;
10469;SDS011;5282;47.052;15.458;2022-07-29T02:36:46;6.37;;;6.00;;
10469;SDS011;5282;47.052;15.458;2022-07-29T02:39:16;5.97;;;5.60;;
10469;SDS011;5282;47.052;15.458;2022-07-29T02:41:45;5.97;;;5.67;;
10469;SDS011;5282;47.052;15.458;2022-07-29T02:44:15;6.03;;;5.70;;
10469;SDS011;5282;47.052;15.458;2022-07-29T02:46:46;6.53;;;6.27;;
10469;SDS011;5282;47.052;15.458;2022-07-29T02:49:21;6.87;;;6.67;;
10469;SDS011;5282;47.052;15.458;2022-07-29T02:52:00;7.03;;;6.70;;
10469;SDS011;5282;47.052;15.458;2022-07-29T02:54:31;6.90;;;6.50;;
10469;SDS011;5282;47.052;15.458;2022-07-29T02:57:05;6.90;;;6.60;;
10469;SDS011;5282;47.052;15.458;2022-07-29T02:59:37;7.07;;;6.77;;
10469;SDS011;5282;47.052;15.458;2022-07-29T03:02:09;7.03;;;6.73;;
10469;SDS011;5282;47.052;15.458;2022-07-29T03:04:39;6.43;;;6.10;;
10469;SDS011;5282;47.052;15.458;2022-07-29T03:07:10;6.43;;;6.00;;
10469;SDS011;5282;47.052;15.458;2022-07-29T03:09:40;6.40;;;6.03;;
10469;SDS011;5282;47.052;15.458;2022-07-29T03:12:10;5.73;;;5.53;;
10469;SDS011;5282;47.052;15.458;2022-07-29T03:14:43;6.43;;;6.10;;
10469;SDS011;5282;47.052;15.458;2022-07-29T03:17:23;6.00;;;5.60;;
10469;SDS011;5282;47.052;15.458;2022-07-29T03:20:00;6.60;;;6.00;;
10469;SDS011;5282;47.052;15.458;2022-07-29T03:22:30;5.93;;;5.53;;
10469;SDS011;5282;47.052;15.458;2022-07-29T03:25:06;6.10;;;5.90;;
10469;SDS011;5282;47.052;15.458;2022-07-29T03:27:40;6.27;;;5.97;;
10469;SDS011;5282;47.052;15.458;2022-07-29T03:30:14;6.43;;;6.13;;
10469;SDS011;5282;47.052;15.458;2022-07-29T03:32:44;6.40;;;6.10;;
10469;SDS011;5282;47.052;15.458;2022-07-29T03:35:16;6.40;;;6.00;;
10469;SDS011;5282;47.052;15.458;2022-07-29T03:37:47;6.20;;;5.90;;
10469;SDS011;5282;47.052;15.458;2022-07-29T03:40:16;6.80;;;6.40;;
10469;SDS011;5282;47.052;15.458;2022-07-29T03:42:49;6.60;;;6.20;;
10469;SDS011;5282;47.052;15.458;2022-07-29T03:45:40;6.67;;;6.27;;
10469;SDS011;5282;47.052;15.458;2022-07-29T03:48:15;7.33;;;7.03;;
10469;SDS011;5282;47.052;15.458;2022-07-29T03:50:49;7.43;;;6.93;;
10469;SDS011;5282;47.052;15.458;2022-07-29T03:53:16;6.33;;;6.03;;
10469;SDS011;5282;47.052;15.458;2022-07-29T03:55:45;8.00;;;7.17;;
10469;SDS011;5282;47.052;15.458;2022-07-29T03:58:16;6.57;;;6.23;;
10469;SDS011;5282;47.052;15.458;2022-07-29T04:00:45;7.17;;;6.73;;
10469;SDS011;5282;47.052;15.458;2022-07-29T04:03:15;7.17;;;6.80;;
10469;SDS011;5282;47.052;15.458;2022-07-29T04:05:42;6.93;;;6.63;;
10469;SDS011;5282;47.052;15.458;2022-07-29T04:08:09;6.67;;;6.37;;
10469;SDS011;5282;47.052;15.458;2022-07-29T04:10:36;6.70;;;6.40;;
10469;SDS011;5282;47.052;15.458;2022-07-29T04:13:04;6.53;;;6.23;;
10469;SDS011;5282;47.052;15.458;2022-07-29T04:15:31;7.03;;;6.73;;
10469;SDS011;5282;47.052;15.458;2022-07-29T04:17:58;7.40;;;6.87;;
10469;SDS011;5282;47.052;15.458;2022-07-29T04:20:27;7.00;;;6.70;;
10469;SDS011;5282;47.052;15.458;2022-07-29T04:22:53;6.73;;;6.40;;
10469;SDS011;5282;47.052;15.458;2022-07-29T04:25:20;7.60;;;7.00;;
10469;SDS011;5282;47.052;15.458;2022-07-29T04:27:47;7.20;;;6.70;;
10469;SDS011;5282;47.052;15.458;2022-07-29T04:30:31;7.13;;;6.77;;
10469;SDS011;5282;47.052;15.458;2022-07-29T04:32:59;6.93;;;6.53;;
10469;SDS011;5282;47.052;15.458;2022-07-29T04:35:28;7.00;;;6.67;;
10469;SDS011;5282;47.052;15.458;2022-07-29T04:37:55;6.77;;;6.53;;
10469;SDS011;5282;47.052;15.458;2022-07-29T04:40:22;7.63;;;7.33;;
10469;SDS011;5282;47.052;15.458;2022-07-29T04:42:49;7.87;;;7.40;;
10469;SDS011;5282;47.052;15.458;2022-07-29T04:45:16;7.10;;;6.60;;
10469;SDS011;5282;47.052;15.458;2022-07-29T04:47:43;6.77;;;6.47;;
10469;SDS011;5282;47.052;15.458;2022-07-29T04:50:10;7.40;;;6.90;;
10469;SDS011;5282;47.052;15.458;2022-07-29T04:52:39;7.10;;;6.73;;
10469;SDS011;5282;47.052;15.458;2022-07-29T04:55:06;7.47;;;7.07;;
10469;SDS011;5282;47.052;15.458;2022-07-29T04:57:36;6.73;;;6.53;;
10469;SDS011;5282;47.052;15.458;2022-07-29T05:00:04;7.33;;;6.93;;
10469;SDS011;5282;47.052;15.458;2022-07-29T05:02:32;7.43;;;7.07;;
10469;SDS011;5282;47.052;15.458;2022-07-29T05:04:59;7.23;;;6.83;;
10469;SDS011;5282;47.052;15.458;2022-07-29T05:07:26;7.97;;;7.57;;
10469;SDS011;5282;47.052;15.458;2022-07-29T05:09:54;7.77;;;7.37;;
10469;SDS011;5282;47.052;15.458;2022-07-29T05:12:22;7.07;;;6.70;;
10469;SDS011;5282;47.052;15.458;2022-07-29T05:14:49;8.13;;;7.73;;
10469;SDS011;5282;47.052;15.458;2022-07-29T05:17:16;7.50;;;7.00;;
10469;SDS011;5282;47.052;15.458;2022-07-29T05:19:42;7.60;;;7.20;;
10469;SDS011;5282;47.052;15.458;2022-07-29T05:22:10;7.60;;;7.10;;
10469;SDS011;5282;47.052;15.458;2022-07-29T05:24:37;7.67;;;7.17;;
10469;SDS011;5282;47.052;15.458;2022-07-29T05:27:06;7.40;;;7.10;;
10469;SDS011;5282;47.052;15.458;2022-07-29T05:29:33;7.73;;;7.23;;
10469;SDS011;5282;47.052;15.458;2022-07-29T05:32:00;7.60;;;7.00;;
10469;SDS011;5282;47.052;15.458;2022-07-29T05:34:29;7.73;;;7.23;;
10469;SDS011;5282;47.052;15.458;2022-07-29T05:36:56;7.33;;;6.83;;
10469;SDS011;5282;47.052;15.458;2022-07-29T05:39:23;7.57;;;7.17;;
10469;SDS011;5282;47.052;15.458;2022-07-29T05:41:50;7.97;;;7.47;;
10469;SDS011;5282;47.052;15.458;2022-07-29T05:44:18;7.73;;;7.23;;
10469;SDS011;5282;47.052;15.458;2022-07-29T05:46:45;7.90;;;7.40;;
10469;SDS011;5282;47.052;15.458;2022-07-29T05:49:12;7.93;;;7.27;;
10469;SDS011;5282;47.052;15.458;2022-07-29T05:51:39;7.37;;;6.77;;
10469;SDS011;5282;47.052;15.458;2022-07-29T05:54:06;7.40;;;6.97;;
10469;SDS011;5282;47.052;15.458;2022-07-29T05:56:33;6.87;;;6.50;;
10469;SDS011;5282;47.052;15.458;2022-07-29T05:59:01;7.07;;;6.57;;
10469;SDS011;5282;47.052;15.458;2022-07-29T06:01:30;6.97;;;6.70;;
10469;SDS011;5282;47.052;15.458;2022-07-29T06:03:57;7.17;;;6.87;;
10469;SDS011;5282;47.052;15.458;2022-07-29T06:06:24;7.43;;;7.13;;
10469;SDS011;5282;47.052;15.458;2022-07-29T06:08:51;7.47;;;7.07;;
10469;SDS011;5282;47.052;15.458;2022-07-29T06:11:17;7.93;;;7.20;;
10469;SDS011;5282;47.052;15.458;2022-07-29T06:13:45;7.93;;;7.10;;
10469;SDS011;5282;47.052;15.458;2022-07-29T06:16:12;7.13;;;6.63;;
10469;SDS011;5282;47.052;15.458;2022-07-29T06:18:40;7.27;;;6.77;;
10469;SDS011;5282;47.052;15.458;2022-07-29T06:21:07;7.37;;;6.87;;
10469;SDS011;5282;47.052;15.458;2022-07-29T06:23:35;7.10;;;6.50;;
10469;SDS011;5282;47.052;15.458;2022-07-29T06:26:03;7.07;;;6.67;;
10469;SDS011;5282;47.052;15.458;2022-07-29T06:28:30;7.00;;;6.67;;
10469;SDS011;5282;47.052;15.458;2022-07-29T06:30:59;7.70;;;7.10;;
10469;SDS011;5282;47.052;15.458;2022-07-29T06:33:27;7.30;;;7.00;;
10469;SDS011;5282;47.052;15.458;2022-07-29T06:35:55;6.83;;;6.33;;
10469;SDS011;5282;47.052;15.458;2022-07-29T06:38:22;7.13;;;6.70;;
10469;SDS011;5282;47.052;15.458;2022-07-29T06:40:49;7.77;;;7.20;;
10469;SDS011;5282;47.052;15.458;2022-07-29T06:43:29;7.23;;;6.83;;
10469;SDS011;5282;47.052;15.458;2022-07-29T06:45:59;7.20;;;6.90;;
10469;SDS011;5282;47.052;15.458;2022-07-29T06:48:27;7.70;;;7.20;;
10469;SDS011;5282;47.052;15.458;2022-07-29T06:50:55;7.03;;;6.63;;
10469;SDS011;5282;47.052;15.458;2022-07-29T06:53:22;6.57;;;6.23;;
10469;SDS011;5282;47.052;15.458;2022-07-29T06:55:49;7.13;;;6.63;;
10469;SDS011;5282;47.052;15.458;2022-07-29T06:58:16;7.57;;;7.10;;
10469;SDS011;5282;47.052;15.458;2022-07-29T07:00:45;7.03;;;6.53;;
10469;SDS011;5282;47.052;15.458;2022-07-29T07:03:14;6.83;;;6.53;;
10469;SDS011;5282;47.052;15.458;2022-07-29T07:05:41;6.13;;;5.83;;
10469;SDS011;5282;47.052;15.458;2022-07-29T07:08:09;6.57;;;6.20;;
10469;SDS011;5282;47.052;15.458;2022-07-29T07:10:36;6.87;;;6.17;;
10469;SDS011;5282;47.052;15.458;2022-07-29T07:13:04;6.40;;;5.90;;
10469;SDS011;5282;47.052;15.458;2022-07-29T07:15:31;6.43;;;6.03;;
10469;SDS011;5282;47.052;15.458;2022-07-29T07:17:58;6.67;;;6.23;;
10469;SDS011;5282;47.052;15.458;2022-07-29T07:20:27;6.63;;;6.27;;
10469;SDS011;5282;47.052;15.458;2022-07-29T07:22:56;6.50;;;6.10;;
10469;SDS011;5282;47.052;15.458;2022-07-29T07:25:25;6.30;;;6.10;;
10469;SDS011;5282;47.052;15.458;2022-07-29T07:27:52;5.90;;;5.60;;
10469;SDS011;5282;47.052;15.458;2022-07-29T07:30:19;6.13;;;5.83;;
10469;SDS011;5282;47.052;15.458;2022-07-29T07:32:45;6.87;;;6.27;;
10469;SDS011;5282;47.052;15.458;2022-07-29T07:35:16;6.17;;;5.90;;
10469;SDS011;5282;47.052;15.458;2022-07-29T07:37:43;6.00;;;5.70;;
10469;SDS011;5282;47.052;15.458;2022-07-29T07:40:10;6.43;;;6.13;;
10469;SDS011;5282;47.052;15.458;2022-07-29T07:42:40;6.00;;;5.80;;
10469;SDS011;5282;47.052;15.458;2022-07-29T07:45:08;5.73;;;5.53;;
10469;SDS011;5282;47.052;15.458;2022-07-29T07:47:36;6.00;;;5.80;;
10469;SDS011;5282;47.052;15.458;2022-07-29T07:50:03;6.20;;;5.90;;
10469;SDS011;5282;47.052;15.458;2022-07-29T07:52:31;6.63;;;6.10;;
10469;SDS011;5282;47.052;15.458;2022-07-29T07:54:59;6.40;;;6.10;;
10469;SDS011;5282;47.052;15.458;2022-07-29T07:57:27;5.93;;;5.63;;
10469;SDS011;5282;47.052;15.458;2022-07-29T07:59:57;6.25;;;5.90;;
10469;SDS011;5282;47.052;15.458;2022-07-29T08:02:24;5.95;;;5.60;;
10469;SDS011;5282;47.052;15.458;2022-07-29T08:04:51;5.90;;;5.50;;
10469;SDS011;5282;47.052;15.458;2022-07-29T08:07:18;5.60;;;5.35;;
10469;SDS011;5282;47.052;15.458;2022-07-29T08:09:45;6.00;;;5.65;;
10469;SDS011;5282;47.052;15.458;2022-07-29T08:12:12;6.10;;;5.60;;
10469;SDS011;5282;47.052;15.458;2022-07-29T08:14:39;4.93;;;4.72;;
10469;SDS011;5282;47.052;15.458;2022-07-29T08:17:08;5.15;;;4.95;;
10469;SDS011;5282;47.052;15.458;2022-07-29T08:19:34;5.13;;;4.95;;
10469;SDS011;5282;47.052;15.458;2022-07-29T08:22:02;5.93;;;5.03;;
10469;SDS011;5282;47.052;15.458;2022-07-29T08:24:29;5.30;;;5.10;;
10469;SDS011;5282;47.052;15.458;2022-07-29T08:27:18;5.90;;;5.50;;
10469;SDS011;5282;47.052;15.458;2022-07-29T08:29:45;5.30;;;5.18;;
10469;SDS011;5282;47.052;15.458;2022-07-29T08:32:14;5.53;;;5.22;;
10469;SDS011;5282;47.052;15.458;2022-07-29T08:34:41;5.43;;;5.07;;
10469;SDS011;5282;47.052;15.458;2022-07-29T08:37:09;5.15;;;4.88;;
10469;SDS011;5282;47.052;15.458;2022-07-29T08:39:36;4.72;;;4.60;;
10469;SDS011;5282;47.052;15.458;2022-07-29T08:42:03;4.82;;;4.70;;
10469;SDS011;5282;47.052;15.458;2022-07-29T08:44:31;4.80;;;4.60;;
10469;SDS011;5282;47.052;15.458;2022-07-29T08:47:00;5.47;;;4.97;;
10469;SDS011;5282;47.052;15.458;2022-07-29T08:49:28;5.70;;;5.30;;
10469;SDS011;5282;47.052;15.458;2022-07-29T08:51:55;4.75;;;4.63;;
10469;SDS011;5282;47.052;15.458;2022-07-29T08:54:24;4.78;;;4.47;;
10469;SDS011;5282;47.052;15.458;2022-07-29T08:56:52;5.35;;;5.00;;
10469;SDS011;5282;47.052;15.458;2022-07-29T08:59:22;4.82;;;4.72;;
10469;SDS011;5282;47.052;15.458;2022-07-29T09:01:52;4.38;;;4.28;;
10469;SDS011;5282;47.052;15.458;2022-07-29T09:04:20;5.18;;;5.07;;
10469;SDS011;5282;47.052;15.458;2022-07-29T09:06:49;4.85;;;4.68;;
10469;SDS011;5282;47.052;15.458;2022-07-29T09:09:18;4.82;;;4.40;;
10469;SDS011;5282;47.052;15.458;2022-07-29T09:11:45;5.38;;;5.18;;
10469;SDS011;5282;47.052;15.458;2022-07-29T09:14:12;5.63;;;5.32;;
10469;SDS011;5282;47.052;15.458;2022-07-29T09:16:50;5.72;;;5.25;;
10469;SDS011;5282;47.052;15.458;2022-07-29T09:19:22;4.75;;;4.55;;
10469;SDS011;5282;47.052;15.458;2022-07-29T09:21:52;5.65;;;5.35;;
10469;SDS011;5282;47.052;15.458;2022-07-29T09:24:26;5.18;;;4.88;;
10469;SDS011;5282;47.052;15.458;2022-07-29T09:27:07;5.40;;;5.00;;
10469;SDS011;5282;47.052;15.458;2022-07-29T09:29:36;4.93;;;4.72;;
10469;SDS011;5282;47.052;15.458;2022-07-29T09:32:05;5.25;;;4.95;;
10469;SDS011;5282;47.052;15.458;2022-07-29T09:34:35;5.43;;;5.20;;
10469;SDS011;5282;47.052;15.458;2022-07-29T09:37:05;5.00;;;4.80;;
10469;SDS011;5282;47.052;15.458;2022-07-29T09:39:33;5.40;;;5.10;;
10469;SDS011;5282;47.052;15.458;2022-07-29T09:42:03;5.65;;;5.10;;
10469;SDS011;5282;47.052;15.458;2022-07-29T09:44:40;5.30;;;5.00;;
10469;SDS011;5282;47.052;15.458;2022-07-29T09:47:09;5.43;;;5.10;;
10469;SDS011;5282;47.052;15.458;2022-07-29T09:49:51;5.18;;;4.88;;
10469;SDS011;5282;47.052;15.458;2022-07-29T09:52:21;5.18;;;4.90;;
10469;SDS011;5282;47.052;15.458;2022-07-29T09:54:48;5.40;;;5.20;;
10469;SDS011;5282;47.052;15.458;2022-07-29T09:57:23;5.47;;;5.10;;
10469;SDS011;5282;47.052;15.458;2022-07-29T10:00:01;5.05;;;4.80;;
10469;SDS011;5282;47.052;15.458;2022-07-29T10:02:33;4.90;;;4.60;;
10469;SDS011;5282;47.052;15.458;2022-07-29T10:05:02;5.10;;;4.90;;
10469;SDS011;5282;47.052;15.458;2022-07-29T10:07:44;4.78;;;4.47;;
10469;SDS011;5282;47.052;15.458;2022-07-29T10:10:17;4.85;;;4.75;;
10469;SDS011;5282;47.052;15.458;2022-07-29T10:12:49;4.80;;;4.53;;
10469;SDS011;5282;47.052;15.458;2022-07-29T10:15:22;5.05;;;4.85;;
10469;SDS011;5282;47.052;15.458;2022-07-29T10:17:50;4.70;;;4.45;;
10469;SDS011;5282;47.052;15.458;2022-07-29T10:20:17;4.35;;;4.05;;
10469;SDS011;5282;47.052;15.458;2022-07-29T10:22:45;5.15;;;4.85;;
10469;SDS011;5282;47.052;15.458;2022-07-29T10:25:14;4.82;;;4.50;;
10469;SDS011;5282;47.052;15.458;2022-07-29T10:27:42;4.65;;;4.45;;
10469;SDS011;5282;47.052;15.458;2022-07-29T10:30:10;4.43;;;4.28;;
10469;SDS011;5282;47.052;15.458;2022-07-29T10:32:40;4.53;;;4.30;;
10469;SDS011;5282;47.052;15.458;2022-07-29T10:35:23;4.30;;;4.00;;
10469;SDS011;5282;47.052;15.458;2022-07-29T10:38:07;4.57;;;4.28;;
10469;SDS011;5282;47.052;15.458;2022-07-29T10:40:52;4.38;;;4.28;;
10469;SDS011;5282;47.052;15.458;2022-07-29T10:43:43;4.43;;;4.22;;
10469;SDS011;5282;47.052;15.458;2022-07-29T10:46:12;5.07;;;4.70;;
10469;SDS011;5282;47.052;15.458;2022-07-29T10:51:56;5.28;;;4.50;;
10469;SDS011;5282;47.052;15.458;2022-07-29T10:54:46;4.50;;;4.20;;
10469;SDS011;5282;47.052;15.458;2022-07-29T10:57:20;4.38;;;4.18;;
10469;SDS011;5282;47.052;15.458;2022-07-29T10:59:58;4.43;;;4.22;;
10469;SDS011;5282;47.052;15.458;2022-07-29T11:02:59;5.07;;;4.50;;
10469;SDS011;5282;47.052;15.458;2022-07-29T11:05:26;4.47;;;4.15;;
10469;SDS011;5282;47.052;15.458;2022-07-29T11:14:05;5.20;;;4.80;;
10469;SDS011;5282;47.052;15.458;2022-07-29T11:19:25;4.78;;;4.57;;
10469;SDS011;5282;47.052;15.458;2022-07-29T11:21:53;4.82;;;4.43;;
10469;SDS011;5282;47.052;15.458;2022-07-29T11:24:21;5.10;;;4.90;;
10469;SDS011;5282;47.052;15.458;2022-07-29T11:27:10;6.68;;;4.97;;
10469;SDS011;5282;47.052;15.458;2022-07-29T11:29:41;4.90;;;4.60;;
10469;SDS011;5282;47.052;15.458;2022-07-29T11:32:15;4.90;;;4.57;;
10469;SDS011;5282;47.052;15.458;2022-07-29T11:34:45;4.88;;;4.68;;
10469;SDS011;5282;47.052;15.458;2022-07-29T11:37:16;4.97;;;4.68;;
10469;SDS011;5282;47.052;15.458;2022-07-29T11:40:10;5.10;;;4.70;;
10469;SDS011;5282;47.052;15.458;2022-07-29T11:42:48;5.57;;;4.75;;
10469;SDS011;5282;47.052;15.458;2022-07-29T11:45:19;5.10;;;4.90;;
10469;SDS011;5282;47.052;15.458;2022-07-29T11:47:50;5.15;;;4.82;;
10469;SDS011;5282;47.052;15.458;2022-07-29T11:50:26;5.63;;;5.32;;
10469;SDS011;5282;47.052;15.458;2022-07-29T11:52:55;5.80;;;5.50;;
10469;SDS011;5282;47.052;15.458;2022-07-29T11:55:23;5.55;;;5.15;;
10469;SDS011;5282;47.052;15.458;2022-07-29T11:57:52;4.93;;;4.63;;
10469;SDS011;5282;47.052;15.458;2022-07-29T12:00:25;5.35;;;5.07;;
10469;SDS011;5282;47.052;15.458;2022-07-29T12:02:53;5.45;;;5.07;;
10469;SDS011;5282;47.052;15.458;2022-07-29T12:05:29;5.22;;;5.03;;
10469;SDS011;5282;47.052;15.458;2022-07-29T12:08:03;5.03;;;4.60;;
10469;SDS011;5282;47.052;15.458;2022-07-29T12:10:31;5.53;;;5.03;;
10469;SDS011;5282;47.052;15.458;2022-07-29T12:12:59;5.18;;;4.88;;
10469;SDS011;5282;47.052;15.458;2022-07-29T12:15:28;5.18;;;4.65;;
10469;SDS011;5282;47.052;15.458;2022-07-29T12:17:55;5.10;;;4.90;;
10469;SDS011;5282;47.052;15.458;2022-07-29T12:20:22;4.95;;;4.55;;
10469;SDS011;5282;47.052;15.458;2022-07-29T12:22:51;4.82;;;4.43;;
10469;SDS011;5282;47.052;15.458;2022-07-29T12:25:20;4.75;;;4.60;;
10469;SDS011;5282;47.052;15.458;2022-07-29T12:27:56;4.65;;;4.53;;
10469;SDS011;5282;47.052;15.458;2022-07-29T12:30:33;4.88;;;4.68;;
10469;SDS011;5282;47.052;15.458;2022-07-29T12:33:10;5.15;;;4.80;;
10469;SDS011;5282;47.052;15.458;2022-07-29T12:35:37;4.82;;;4.53;;
10469;SDS011;5282;47.052;15.458;2022-07-29T12:38:05;5.68;;;5.20;;
10469;SDS011;5282;47.052;15.458;2022-07-29T12:40:33;5.53;;;5.10;;
10469;SDS011;5282;47.052;15.458;2022-07-29T12:43:04;5.63;;;5.20;;
10469;SDS011;5282;47.052;15.458;2022-07-29T12:45:34;6.03;;;5.15;;
10469;SDS011;5282;47.052;15.458;2022-07-29T12:48:04;5.35;;;5.05;;
10469;SDS011;5282;47.052;15.458;2022-07-29T12:50:33;6.20;;;5.78;;
10469;SDS011;5282;47.052;15.458;2022-07-29T12:53:08;5.80;;;5.15;;
10469;SDS011;5282;47.052;15.458;2022-07-29T12:55:40;5.20;;;4.72;;
10469;SDS011;5282;47.052;15.458;2022-07-29T12:58:08;4.95;;;4.70;;
10469;SDS011;5282;47.052;15.458;2022-07-29T13:00:37;5.13;;;4.82;;
10469;SDS011;5282;47.052;15.458;2022-07-29T13:03:04;4.82;;;4.53;;
10469;SDS011;5282;47.052;15.458;2022-07-29T13:05:41;9.38;;;4.97;;
10469;SDS011;5282;47.052;15.458;2022-07-29T13:08:10;5.35;;;4.80;;
10469;SDS011;5282;47.052;15.458;2022-07-29T13:10:38;4.95;;;4.85;;
10469;SDS011;5282;47.052;15.458;2022-07-29T13:13:06;5.57;;;5.18;;
10469;SDS011;5282;47.052;15.458;2022-07-29T13:15:37;4.85;;;4.65;;
10469;SDS011;5282;47.052;15.458;2022-07-29T13:18:06;5.10;;;4.90;;
10469;SDS011;5282;47.052;15.458;2022-07-29T13:20:53;5.03;;;4.80;;
10469;SDS011;5282;47.052;15.458;2022-07-29T13:23:20;5.22;;;5.03;;
10469;SDS011;5282;47.052;15.458;2022-07-29T13:25:47;4.72;;;4.53;;
10469;SDS011;5282;47.052;15.458;2022-07-29T13:28:15;5.40;;;5.00;;
10469;SDS011;5282;47.052;15.458;2022-07-29T13:30:43;4.90;;;4.70;;
10469;SDS011;5282;47.052;15.458;2022-07-29T13:33:10;5.78;;;5.38;;
10469;SDS011;5282;47.052;15.458;2022-07-29T13:35:38;4.88;;;4.63;;
10469;SDS011;5282;47.052;15.458;2022-07-29T13:38:05;5.47;;;5.22;;
10469;SDS011;5282;47.052;15.458;2022-07-29T13:40:33;5.20;;;4.90;;
10469;SDS011;5282;47.052;15.458;2022-07-29T13:43:00;5.82;;;5.30;;
10469;SDS011;5282;47.052;15.458;2022-07-29T13:45:27;5.80;;;5.30;;
10469;SDS011;5282;47.052;15.458;2022-07-29T13:47:56;5.68;;;5.38;;
10469;SDS011;5282;47.052;15.458;2022-07-29T13:50:23;5.18;;;5.07;;
10469;SDS011;5282;47.052;15.458;2022-07-29T13:52:49;5.32;;;5.13;;
10469;SDS011;5282;47.052;15.458;2022-07-29T13:55:16;5.40;;;5.05;;
10469;SDS011;5282;47.052;15.458;2022-07-29T13:57:43;5.38;;;5.18;;
10469;SDS011;5282;47.052;15.458;2022-07-29T14:00:13;5.13;;;5.03;;
10469;SDS011;5282;47.052;15.458;2022-07-29T14:02:41;5.45;;;5.15;;
10469;SDS011;5282;47.052;15.458;2022-07-29T14:05:09;5.32;;;5.10;;
10469;SDS011;5282;47.052;15.458;2022-07-29T14:07:36;5.45;;;5.22;;
10469;SDS011;5282;47.052;15.458;2022-07-29T14:10:04;5.82;;;5.40;;
10469;SDS011;5282;47.052;15.458;2022-07-29T14:12:32;5.28;;;5.07;;
10469;SDS011;5282;47.052;15.458;2022-07-29T14:14:59;5.28;;;5.00;;
10469;SDS011;5282;47.052;15.458;2022-07-29T14:17:26;6.28;;;5.13;;
10469;SDS011;5282;47.052;15.458;2022-07-29T14:19:53;5.28;;;5.10;;
10469;SDS011;5282;47.052;15.458;2022-07-29T14:22:21;5.63;;;5.32;;
10469;SDS011;5282;47.052;15.458;2022-07-29T14:24:48;6.00;;;5.63;;
10469;SDS011;5282;47.052;15.458;2022-07-29T14:27:15;5.20;;;5.00;;
10469;SDS011;5282;47.052;15.458;2022-07-29T14:29:42;5.97;;;5.65;;
10469;SDS011;5282;47.052;15.458;2022-07-29T14:32:09;4.72;;;4.63;;
10469;SDS011;5282;47.052;15.458;2022-07-29T14:34:36;5.78;;;5.32;;
10469;SDS011;5282;47.052;15.458;2022-07-29T14:37:05;5.30;;;5.07;;
10469;SDS011;5282;47.052;15.458;2022-07-29T14:39:35;5.60;;;5.40;;
10469;SDS011;5282;47.052;15.458;2022-07-29T14:42:02;4.95;;;4.75;;
10469;SDS011;5282;47.052;15.458;2022-07-29T14:44:30;5.03;;;4.82;;
10469;SDS011;5282;47.052;15.458;2022-07-29T14:46:57;4.75;;;4.55;;
10469;SDS011;5282;47.052;15.458;2022-07-29T14:49:25;5.13;;;5.03;;
10469;SDS011;5282;47.052;15.458;2022-07-29T14:51:52;4.43;;;4.32;;
10469;SDS011;5282;47.052;15.458;2022-07-29T14:54:19;5.00;;;4.70;;
10469;SDS011;5282;47.052;15.458;2022-07-29T14:56:50;5.03;;;4.68;;
10469;SDS011;5282;47.052;15.458;2022-07-29T14:59:20;5.03;;;4.88;;
10469;SDS011;5282;47.052;15.458;2022-07-29T15:01:47;5.65;;;5.22;;
10469;SDS011;5282;47.052;15.458;2022-07-29T15:04:15;5.10;;;4.97;;
10469;SDS011;5282;47.052;15.458;2022-07-29T15:06:42;5.32;;;5.03;;
10469;SDS011;5282;47.052;15.458;2022-07-29T15:09:09;4.85;;;4.65;;
10469;SDS011;5282;47.052;15.458;2022-07-29T15:11:35;5.63;;;5.30;;
10469;SDS011;5282;47.052;15.458;2022-07-29T15:14:06;5.30;;;5.05;;
10469;SDS011;5282;47.052;15.458;2022-07-29T15:16:35;5.40;;;4.97;;
10469;SDS011;5282;47.052;15.458;2022-07-29T15:19:02;5.15;;;4.95;;